createdAt,value
2023-03-27T00:01:57.554Z,55.08
2023-03-27T00:06:59.620Z,55.25
2023-03-27T00:12:02.423Z,55.55
2023-03-27T00:17:05.172Z,55.64
2023-03-27T00:22:07.032Z,56.11
2023-03-27T00:27:09.209Z,56.54
2023-03-27T00:32:11.108Z,56.62
2023-03-27T00:37:13.056Z,56.64
2023-03-27T00:42:15.028Z,55.93
2023-03-27T00:47:18.655Z,56.26
2023-03-27T00:52:21.463Z,55.57
2023-03-27T00:57:25.262Z,55.87
2023-03-27T01:02:28.022Z,56.38
2023-03-27T01:07:31.178Z,55.74
2023-03-27T01:12:47.147Z,56.23
2023-03-27T01:18:10.438Z,55.74
2023-03-27T01:23:35.762Z,56.40
2023-03-27T01:29:02.579Z,56.29
2023-03-27T01:34:21.570Z,56.33
2023-03-27T01:39:47.406Z,56.63
2023-03-27T01:45:08.694Z,56.36
2023-03-27T01:50:29.877Z,56.26
2023-03-27T01:55:36.514Z,56.58
2023-03-27T02:00:51.093Z,56.59
2023-03-27T02:06:06.672Z,56.80
2023-03-27T02:11:10.835Z,56.06
2023-03-27T02:16:18.302Z,56.14
2023-03-27T02:21:20.281Z,55.69
2023-03-27T02:26:22.286Z,55.44
2023-03-27T02:32:02.310Z,56.01
2023-03-27T02:37:16.375Z,55.72
2023-03-27T02:42:59.183Z,55.56
2023-03-27T02:48:10.509Z,55.55
2023-03-27T02:53:20.615Z,55.75
2023-03-27T02:58:27.081Z,55.23
2023-03-27T03:04:00.199Z,55.12
2023-03-27T03:09:20.874Z,55.21
2023-03-27T03:14:40.026Z,55.62
2023-03-27T03:19:42.053Z,55.59
2023-03-27T03:24:43.976Z,55.54
2023-03-27T03:29:49.696Z,55.74
2023-03-27T03:34:57.088Z,55.20
2023-03-27T03:40:00.674Z,55.66
2023-03-27T03:45:02.542Z,57.09
2023-03-27T03:50:05.201Z,57.21
2023-03-27T03:55:09.858Z,56.74
2023-03-27T04:00:12.642Z,57.30
2023-03-27T04:05:24.590Z,56.82
2023-03-27T04:10:29.665Z,56.77
2023-03-27T04:15:33.558Z,56.83
2023-03-27T04:20:50.028Z,56.45
2023-03-27T04:25:54.212Z,56.32
2023-03-27T04:31:06.804Z,56.27
2023-03-27T04:36:14.845Z,56.50
2023-03-27T04:41:29.826Z,56.17
2023-03-27T04:46:32.108Z,56.42
2023-03-27T04:51:41.977Z,56.07
2023-03-27T04:56:46.654Z,56.08
2023-03-27T05:01:50.823Z,56.16
2023-03-27T05:07:20.128Z,56.04
2023-03-27T05:12:22.738Z,56.46
2023-03-27T05:17:28.204Z,56.44
2023-03-27T05:22:30.376Z,56.80
2023-03-27T05:27:46.843Z,56.40
2023-03-27T05:32:54.388Z,56.05
2023-03-27T05:38:01.054Z,56.65
2023-03-27T05:43:18.334Z,56.68
2023-03-27T05:48:20.378Z,56.72
2023-03-27T05:53:28.628Z,56.79
2023-03-27T05:58:52.302Z,56.93
2023-03-27T06:03:56.226Z,57.03
2023-03-27T06:09:17.391Z,57.02
2023-03-27T06:14:33.944Z,57.14
2023-03-27T06:19:51.348Z,57.09
2023-03-27T06:24:57.041Z,57.04
2023-03-27T06:29:58.866Z,57.08
2023-03-27T06:35:00.785Z,56.84
2023-03-27T06:40:24.372Z,57.14
2023-03-27T06:45:43.507Z,56.50
2023-03-27T06:50:54.108Z,56.84
2023-03-27T06:55:57.375Z,56.89
2023-03-27T07:01:01.282Z,57.12
2023-03-27T07:06:29.301Z,56.99
2023-03-27T07:11:43.057Z,56.16
2023-03-27T07:16:44.956Z,56.63
2023-03-27T07:21:46.941Z,56.06
2023-03-27T07:26:48.958Z,55.83
2023-03-27T07:32:02.854Z,55.92
2023-03-27T07:37:14.635Z,55.58
2023-03-27T07:42:36.538Z,55.20
2023-03-27T07:47:42.041Z,54.72
2023-03-27T07:52:45.967Z,54.47
2023-03-27T07:58:00.753Z,53.67
2023-03-27T08:03:11.637Z,53.66
2023-03-27T08:08:18.434Z,53.09
2023-03-27T08:13:31.121Z,53.12
2023-03-27T08:18:37.984Z,52.63
2023-03-27T08:23:42.916Z,52.45
2023-03-27T08:29:03.751Z,52.14
2023-03-27T08:34:07.332Z,51.72
2023-03-27T08:39:22.881Z,51.86
2023-03-27T08:44:34.685Z,51.36
2023-03-27T08:49:48.063Z,51.08
2023-03-27T08:55:26.258Z,50.93
2023-03-27T09:00:41.392Z,50.52
2023-03-27T09:06:02.812Z,50.31
2023-03-27T09:11:29.290Z,49.81
2023-03-27T09:16:49.487Z,50.05
2023-03-27T09:22:19.276Z,50.13
2023-03-27T09:27:38.434Z,50.13
2023-03-27T09:33:03.911Z,49.63
2023-03-27T09:38:31.913Z,49.46
2023-03-27T09:43:53.875Z,48.80
2023-03-27T09:49:20.008Z,48.42
2023-03-27T09:54:32.623Z,47.68
2023-03-27T09:59:38.999Z,47.31
2023-03-27T10:05:00.105Z,48.69
2023-03-27T10:10:08.468Z,49.58
2023-03-27T10:15:35.663Z,49.90
2023-03-27T10:20:37.753Z,49.05
2023-03-27T10:25:50.528Z,48.33
2023-03-27T10:31:08.446Z,47.73
2023-03-27T10:36:28.202Z,46.31
2023-03-27T10:41:34.682Z,45.54
2023-03-27T10:46:41.068Z,46.04
2023-03-27T10:51:51.527Z,45.69
2023-03-27T10:57:30.563Z,44.76
2023-03-27T11:02:57.748Z,44.79
2023-03-27T11:08:13.378Z,45.80
2023-03-27T11:13:23.650Z,46.75
2023-03-27T11:18:39.412Z,46.36
2023-03-27T11:23:53.002Z,45.60
2023-03-27T11:29:25.608Z,46.61
2023-03-27T11:34:34.563Z,46.50
2023-03-27T11:40:09.534Z,46.20
2023-03-27T11:45:23.991Z,45.34
2023-03-27T11:50:56.759Z,44.68
2023-03-27T11:56:33.720Z,43.84
2023-03-27T12:01:51.080Z,44.23
2023-03-27T12:07:04.956Z,44.43
2023-03-27T12:12:43.224Z,44.20
2023-03-27T12:18:02.037Z,43.25
2023-03-27T12:23:26.367Z,43.18
2023-03-27T12:28:57.523Z,43.36
2023-03-27T12:34:53.192Z,43.56
2023-03-27T12:39:59.698Z,43.64
2023-03-27T12:45:14.718Z,43.95
2023-03-27T12:50:26.169Z,42.26
2023-03-27T12:55:32.285Z,41.41
2023-03-27T13:00:34.404Z,41.66
2023-03-27T13:05:55.386Z,40.89
2023-03-27T13:11:11.544Z,39.98
2023-03-27T13:16:27.043Z,39.28
2023-03-27T13:22:04.504Z,39.23
2023-03-27T13:27:29.241Z,40.06
2023-03-27T13:32:33.629Z,41.28
2023-03-27T13:37:58.655Z,42.61
2023-03-27T13:43:21.717Z,43.24
2023-03-27T13:48:50.455Z,43.31
2023-03-27T13:53:55.094Z,42.64
2023-03-27T13:59:47.906Z,42.51
2023-03-27T14:05:17.658Z,40.90
2023-03-27T14:10:37.999Z,40.70
2023-03-27T14:16:01.977Z,42.13
2023-03-27T14:21:17.918Z,43.18
2023-03-27T14:26:29.874Z,44.22
2023-03-27T14:31:35.982Z,45.11
2023-03-27T14:36:58.728Z,45.37
2023-03-27T14:42:16.632Z,45.71
2023-03-27T14:47:23.006Z,46.55
2023-03-27T14:52:33.387Z,47.53
2023-03-27T14:58:10.907Z,47.63
2023-03-27T15:03:22.598Z,48.38
2023-03-27T15:08:26.188Z,50.44
2023-03-27T15:14:03.640Z,50.41
2023-03-27T15:19:27.816Z,51.01
2023-03-27T15:24:37.076Z,51.45
2023-03-27T15:29:42.821Z,51.67
2023-03-27T15:34:51.340Z,50.99
2023-03-27T15:40:10.828Z,50.65
2023-03-27T15:45:15.080Z,50.10
2023-03-27T15:50:22.782Z,50.24
2023-03-27T15:55:42.351Z,49.87
2023-03-27T16:00:49.086Z,49.83
2023-03-27T16:05:53.771Z,49.64
2023-03-27T16:10:55.886Z,49.53
2023-03-27T16:16:00.641Z,49.46
2023-03-27T16:21:13.383Z,49.64
2023-03-27T16:26:31.695Z,49.54
2023-03-27T16:31:33.556Z,49.73
2023-03-27T16:36:35.699Z,49.46
2023-03-27T16:41:37.578Z,49.64
2023-03-27T16:46:40.555Z,50.20
2023-03-27T16:51:43.993Z,49.99
2023-03-27T16:56:46.442Z,50.11
2023-03-27T17:01:48.784Z,50.13
2023-03-27T17:06:51.510Z,50.89
2023-03-27T17:11:53.390Z,50.73
2023-03-27T17:16:55.350Z,51.21
2023-03-27T17:21:57.153Z,51.74
2023-03-27T17:26:58.908Z,51.88
2023-03-27T17:32:02.243Z,52.30
2023-03-27T17:37:04.100Z,52.75
2023-03-27T17:42:06.806Z,53.06
2023-03-27T17:47:08.794Z,52.04
2023-03-27T17:52:12.285Z,51.84
2023-03-27T17:57:14.622Z,52.02
2023-03-27T18:02:19.817Z,52.42
2023-03-27T18:07:23.222Z,53.21
2023-03-27T18:12:26.090Z,53.02
2023-03-27T18:17:28.056Z,52.99
2023-03-27T18:22:29.998Z,53.00
2023-03-27T18:27:31.938Z,53.31
2023-03-27T18:32:34.085Z,54.67
2023-03-27T18:37:37.248Z,55.49
2023-03-27T18:42:40.920Z,55.04
2023-03-27T18:47:44.577Z,54.63
2023-03-27T18:52:46.912Z,55.17
2023-03-27T18:57:49.168Z,55.46
2023-03-27T19:02:51.447Z,55.57
2023-03-27T19:07:57.847Z,56.64
2023-03-27T19:13:00.025Z,56.79
2023-03-27T19:18:21.376Z,56.86
2023-03-27T19:23:48.756Z,56.70
2023-03-27T19:28:52.901Z,56.49
2023-03-27T19:33:55.350Z,56.06
2023-03-27T19:38:57.745Z,55.63
2023-03-27T19:44:00.581Z,55.60
2023-03-27T19:49:02.606Z,55.45
2023-03-27T19:54:25.810Z,55.50
2023-03-27T19:59:30.776Z,55.94
2023-03-27T20:04:33.152Z,55.64
2023-03-27T20:09:37.090Z,55.68
2023-03-27T20:14:42.655Z,55.55
2023-03-27T20:19:49.011Z,55.32
2023-03-27T20:24:50.862Z,54.82
2023-03-27T20:29:53.218Z,55.17
2023-03-27T20:34:55.336Z,55.61
2023-03-27T20:39:57.455Z,54.84
2023-03-27T20:45:01.681Z,54.58
2023-03-27T20:50:04.445Z,54.27
2023-03-27T20:55:06.793Z,54.80
2023-03-27T21:00:09.364Z,55.19
2023-03-27T21:05:11.138Z,55.04
2023-03-27T21:10:13.596Z,55.19
2023-03-27T21:15:15.555Z,54.81
2023-03-27T21:20:17.414Z,54.95
2023-03-27T21:25:21.337Z,54.81
2023-03-27T21:30:46.823Z,55.20
2023-03-27T21:35:49.715Z,55.49
2023-03-27T21:40:51.521Z,55.66
2023-03-27T21:45:53.392Z,55.49
2023-03-27T21:51:00.315Z,54.96
2023-03-27T21:56:03.068Z,55.04
2023-03-27T22:01:05.501Z,54.76
2023-03-27T22:06:12.564Z,54.89
2023-03-27T22:11:15.556Z,54.85
2023-03-27T22:16:18.055Z,55.04
2023-03-27T22:21:25.649Z,55.11
2023-03-27T22:26:31.851Z,54.91
2023-03-27T22:31:33.811Z,54.88
2023-03-27T22:36:35.714Z,55.05
2023-03-27T22:41:37.601Z,54.63
2023-03-27T22:46:39.391Z,54.94
2023-03-27T22:51:41.222Z,54.74
2023-03-27T22:56:43.055Z,54.94
2023-03-27T23:01:45.027Z,54.74
2023-03-27T23:06:46.989Z,54.31
2023-03-27T23:11:49.228Z,54.08
2023-03-27T23:16:51.141Z,54.35
2023-03-27T23:21:52.940Z,54.84
2023-03-27T23:26:54.724Z,54.36
2023-03-27T23:31:56.642Z,54.38
2023-03-27T23:36:58.666Z,54.45
2023-03-27T23:42:00.680Z,54.78
2023-03-27T23:47:02.506Z,54.10
2023-03-27T23:52:04.373Z,54.68
2023-03-27T23:57:06.458Z,54.28
